Ashland, Missouri
Current Conditions -  °F | °C
As of 3:54 AM on Wednesday 22 Oct 2014 (Local Time) from KCOU Reporting Station
Clear Clear  
Wind Chill: 42°   Ceiling: Unl
Heat Index: 46°   Visibility: 10mi
Dew Point: 40°   Wind: 7mph
Humidity: 79%   Direction: 100°E
Pressure: 30.21"   Gusts: NA
Location:  38.77°N, 92.26°W
Report Text: KCOU 220854Z AUTO 10006KT 10SM CLR 08/04 A3021 RMK AO2 SLP229 T00780044 52012
Loading
Personal Weather Stations






























Interactive Weather Map
Tropical Storm Tracking
New forecast layout! Learn more

10-Day Weather Forecast

Advertisements
Track Severe Weather on mobile